Pagina principale
METAR-TAF:

METAR-TAF

Aeroporti :

Taranto, Italia

Aeroporto di Taranto-Grottaglie

latitudine: 40-31N, longitudine: 017-24E, altezza: 64 m

Osservazione

Il bollettino è stato emesso 43 minuti fa, alle 06:00 UTC
Vento 6 kt da nord-ovest
Temperature 25°C
Umidità 54%
Pressione 1004 hPa
Visibilità 10 km o più
nessuna nube inferiore a 1500 m e nessun cumulonembo

METAR: LIBG 260600Z 32006KT CAVOK 25/15 Q1004

Ora: 08:43 (06:43 UTC)

Previsione

Il bollettino è stato emesso 1 ora e 43 minuti fa, alle 05:00 UTC
Previsione valida dal 26 alle 06 UTC al 26 alle 15 UTC
Vento 12 kt da sud-ovest
Nubi sparse ad un'altezza di 3000 ft
Temporaneamente
dal 26 alle 10 UTC al 26 alle 15 UTC
temporale, pioggia

TAF: LIBG 260500Z 2606/2615 23012KT SCT030 TEMPO 2610/2615 TSRA

Osservazioni e previsioni meteorologiche di più di 4000 aeroporti (messaggi METAR e TAF).

Le stazioni disponibili sono rappresentate dai dischi gialli e rossi sulla carta.

Puntare il mouse per vedere il nome della stazione.

Clicca sopra per visualizzare le osservazioni e previsioni meteorologiche.

Per cambiare la mappa : fare clic sui pulsanti verdi con una croce nera per ingrandire, il pulsante verde con un trattino per diminuire, o sulla freccia verde per le mappe adiacenti.


METAR-TAF: